NSZ2KT ENBR-LHBP
Flight info
| Callsign | NSZ2KT |
|---|---|
| Flight time | N/A |
| Altitude | 37000 |
| Route | TUXIL DCT ZOL DCT RAMUD DCT RAXLU DCT GODUR DCT HDO DCT BNO DCT ODNEM DCT BERVA DCT NIT/N0405F230 M748 ARFOX |
| Aircraft | B738/M-SDE2E3FGHIRWXY/LB1 |
Departure
| Time | 2026-05-08 09:07 |
|---|---|
| Airport | Bergen Airport, Flesland (ENBR) |
Arrival
| Time | N/A |
|---|---|
| Airport | Budapest Liszt Ferenc International Airport (LHBP) |
| Time | Latitude | Longitude | Altitude | Speed | Heading |
|---|---|---|---|---|---|
| 2026-05-08 08:41 | 60.28825 | 5.22606 | 160 ft | 0 kts | 35° |
| 2026-05-08 08:55 | 60.28812 | 5.22588 | 160 ft | 2 kts | 34° |
| 2026-05-08 08:55 | 60.28798 | 5.22569 | 160 ft | 2 kts | 33° |
| 2026-05-08 08:56 | 60.28784 | 5.22551 | 160 ft | 2 kts | 31° |
| 2026-05-08 08:56 | 60.28770 | 5.22534 | 160 ft | 2 kts | 30° |
| 2026-05-08 08:56 | 60.28755 | 5.22518 | 159 ft | 2 kts | 27° |
| 2026-05-08 08:56 | 60.28741 | 5.22503 | 159 ft | 2 kts | 24° |
| 2026-05-08 08:57 | 60.28725 | 5.22490 | 159 ft | 2 kts | 20° |
| 2026-05-08 08:57 | 60.28710 | 5.22480 | 159 ft | 2 kts | 14° |
| 2026-05-08 08:57 | 60.28693 | 5.22474 | 159 ft | 2 kts | 4° |
| 2026-05-08 08:57 | 60.28677 | 5.22475 | 159 ft | 2 kts | 350° |
| 2026-05-08 08:58 | 60.28662 | 5.22482 | 159 ft | 1 kts | 344° |
| 2026-05-08 08:58 | 60.28658 | 5.22484 | 159 ft | 0 kts | 349° |
| 2026-05-08 09:00 | 60.28664 | 5.22482 | 159 ft | 4 kts | 348° |
| 2026-05-08 09:00 | 60.28690 | 5.22413 | 159 ft | 8 kts | 290° |
| 2026-05-08 09:00 | 60.28732 | 5.22343 | 159 ft | 9 kts | 343° |
| 2026-05-08 09:01 | 60.28796 | 5.22322 | 160 ft | 10 kts | 351° |
| 2026-05-08 09:01 | 60.28861 | 5.22304 | 160 ft | 9 kts | 348° |
| 2026-05-08 09:01 | 60.28927 | 5.22275 | 161 ft | 11 kts | 349° |
| 2026-05-08 09:01 | 60.29035 | 5.22241 | 162 ft | 19 kts | 352° |
| 2026-05-08 09:02 | 60.29173 | 5.22196 | 163 ft | 21 kts | 350° |
| 2026-05-08 09:02 | 60.29317 | 5.22146 | 164 ft | 21 kts | 350° |
| 2026-05-08 09:02 | 60.29457 | 5.22098 | 166 ft | 20 kts | 351° |
| 2026-05-08 09:02 | 60.29600 | 5.22049 | 167 ft | 22 kts | 350° |
| 2026-05-08 09:03 | 60.29753 | 5.21997 | 168 ft | 24 kts | 351° |
| 2026-05-08 09:03 | 60.29957 | 5.21931 | 170 ft | 33 kts | 351° |
| 2026-05-08 09:03 | 60.30185 | 5.21852 | 172 ft | 33 kts | 351° |
| 2026-05-08 09:03 | 60.30405 | 5.21779 | 174 ft | 27 kts | 350° |
| 2026-05-08 09:04 | 60.30588 | 5.21719 | 175 ft | 25 kts | 351° |
| 2026-05-08 09:04 | 60.30662 | 5.21587 | 176 ft | 9 kts | 263° |
| 2026-05-08 09:04 | 60.30651 | 5.21459 | 178 ft | 9 kts | 251° |
| 2026-05-08 09:04 | 60.30620 | 5.21385 | 178 ft | 6 kts | 181° |
| 2026-05-08 09:05 | 60.30606 | 5.21391 | 178 ft | 0 kts | 168° |
| 2026-05-08 09:06 | 60.30584 | 5.21400 | 177 ft | 20 kts | 168° |
| 2026-05-08 09:07 | 60.30182 | 5.21535 | 170 ft | 95 kts | 170° |
| 2026-05-08 09:07 | 60.29322 | 5.21825 | 176 ft | 153 kts | 170° |
| 2026-05-08 09:07 | 60.28222 | 5.22171 | 870 ft | 158 kts | 172° |
| 2026-05-08 09:07 | 60.27167 | 5.22526 | 2063 ft | 150 kts | 171° |
| 2026-05-08 09:08 | 60.26143 | 5.22905 | 2951 ft | 153 kts | 170° |
| 2026-05-08 09:08 | 60.25032 | 5.23281 | 3500 ft | 171 kts | 171° |
| 2026-05-08 09:08 | 60.23827 | 5.23662 | 4095 ft | 178 kts | 172° |
| 2026-05-08 09:08 | 60.22573 | 5.24077 | 4609 ft | 190 kts | 172° |
| 2026-05-08 09:09 | 60.21161 | 5.24506 | 4876 ft | 217 kts | 172° |
| 2026-05-08 09:09 | 60.19628 | 5.24975 | 5570 ft | 225 kts | 172° |
| 2026-05-08 09:09 | 60.18091 | 5.25490 | 6492 ft | 225 kts | 172° |
| 2026-05-08 09:09 | 60.16491 | 5.26044 | 7006 ft | 240 kts | 173° |
| 2026-05-08 09:10 | 60.14819 | 5.26622 | 7696 ft | 247 kts | 173° |
| 2026-05-08 09:10 | 60.13115 | 5.27203 | 8465 ft | 251 kts | 173° |
| 2026-05-08 09:10 | 60.11374 | 5.27795 | 9217 ft | 257 kts | 174° |
| 2026-05-08 09:10 | 60.09590 | 5.28398 | 9929 ft | 264 kts | 174° |
| 2026-05-08 09:11 | 60.07760 | 5.28946 | 10626 ft | 267 kts | 176° |
| 2026-05-08 09:11 | 60.05918 | 5.29440 | 11437 ft | 267 kts | 176° |
| 2026-05-08 09:11 | 60.04064 | 5.29926 | 12181 ft | 271 kts | 176° |
| 2026-05-08 09:11 | 60.02196 | 5.30417 | 12972 ft | 272 kts | 176° |
| 2026-05-08 09:12 | 60.00312 | 5.30914 | 13716 ft | 275 kts | 176° |
| 2026-05-08 09:12 | 59.98404 | 5.31419 | 14339 ft | 281 kts | 176° |
| 2026-05-08 09:12 | 59.96387 | 5.31948 | 14524 ft | 303 kts | 176° |
| 2026-05-08 09:12 | 59.94253 | 5.32510 | 14688 ft | 324 kts | 175° |
| 2026-05-08 09:13 | 59.91952 | 5.33119 | 14846 ft | 344 kts | 175° |
| 2026-05-08 09:13 | 59.89517 | 5.33768 | 15035 ft | 361 kts | 175° |
| 2026-05-08 09:13 | 59.87002 | 5.34442 | 15531 ft | 368 kts | 175° |
| 2026-05-08 09:13 | 59.84458 | 5.35124 | 16204 ft | 370 kts | 175° |
| 2026-05-08 09:14 | 59.81901 | 5.35804 | 16851 ft | 372 kts | 175° |
| 2026-05-08 09:14 | 59.79323 | 5.36475 | 17448 ft | 376 kts | 176° |
| 2026-05-08 09:14 | 59.76711 | 5.36968 | 18046 ft | 378 kts | 178° |
| 2026-05-08 09:14 | 59.74073 | 5.37359 | 18609 ft | 381 kts | 178° |
| 2026-05-08 09:15 | 59.71419 | 5.37746 | 19121 ft | 384 kts | 178° |
| 2026-05-08 09:15 | 59.68745 | 5.38163 | 19646 ft | 387 kts | 178° |
| 2026-05-08 09:15 | 59.66053 | 5.38601 | 20140 ft | 389 kts | 178° |
| 2026-05-08 09:15 | 59.64263 | 5.38902 | 20463 ft | 391 kts | 177° |
| 2026-05-08 09:16 | 59.61542 | 5.39508 | 20952 ft | 395 kts | 175° |
| 2026-05-08 09:16 | 59.58810 | 5.40224 | 21418 ft | 398 kts | 175° |
| 2026-05-08 09:16 | 59.56058 | 5.40969 | 21867 ft | 401 kts | 175° |
| 2026-05-08 09:16 | 59.53288 | 5.41706 | 22346 ft | 403 kts | 175° |
| 2026-05-08 09:17 | 59.50495 | 5.42431 | 22798 ft | 406 kts | 175° |
| 2026-05-08 09:17 | 59.47690 | 5.43145 | 23241 ft | 408 kts | 175° |
| 2026-05-08 09:17 | 59.44858 | 5.43859 | 23655 ft | 412 kts | 175° |
| 2026-05-08 09:17 | 59.42010 | 5.44574 | 24023 ft | 414 kts | 175° |
| 2026-05-08 09:18 | 59.39146 | 5.45332 | 24398 ft | 416 kts | 174° |
| 2026-05-08 09:18 | 59.36288 | 5.46291 | 24779 ft | 418 kts | 172° |
| 2026-05-08 09:18 | 59.33425 | 5.47358 | 25134 ft | 420 kts | 172° |
| 2026-05-08 09:18 | 59.30547 | 5.48457 | 25478 ft | 422 kts | 171° |
| 2026-05-08 09:19 | 59.27658 | 5.49553 | 25816 ft | 424 kts | 172° |
| 2026-05-08 09:19 | 59.24756 | 5.50636 | 26147 ft | 426 kts | 172° |
| 2026-05-08 09:19 | 59.21840 | 5.51708 | 26471 ft | 427 kts | 172° |
| 2026-05-08 09:19 | 59.18912 | 5.52773 | 26786 ft | 429 kts | 172° |
| 2026-05-08 09:20 | 59.16008 | 5.53822 | 27090 ft | 431 kts | 172° |
| 2026-05-08 09:20 | 59.13059 | 5.54884 | 27384 ft | 433 kts | 172° |
| 2026-05-08 09:20 | 59.10089 | 5.55951 | 27673 ft | 434 kts | 172° |
| 2026-05-08 09:20 | 59.07114 | 5.57019 | 27954 ft | 436 kts | 172° |
| 2026-05-08 09:21 | 59.04125 | 5.58090 | 28243 ft | 438 kts | 172° |
| 2026-05-08 09:21 | 59.01127 | 5.59163 | 28585 ft | 438 kts | 172° |
| 2026-05-08 09:22 | 58.83741 | 5.68116 | 30963 ft | 435 kts | 152° |
| 2026-05-08 09:23 | 58.81155 | 5.71106 | 31362 ft | 432 kts | 152° |
| 2026-05-08 09:23 | 58.78586 | 5.74093 | 31709 ft | 430 kts | 152° |
| 2026-05-08 09:23 | 58.76023 | 5.77064 | 32017 ft | 429 kts | 152° |
| 2026-05-08 09:23 | 58.73465 | 5.80011 | 32355 ft | 428 kts | 152° |
| 2026-05-08 09:24 | 58.70912 | 5.82935 | 32723 ft | 426 kts | 152° |
| 2026-05-08 09:24 | 58.68371 | 5.85829 | 33071 ft | 424 kts | 152° |
| 2026-05-08 09:24 | 58.65835 | 5.88706 | 33388 ft | 423 kts | 153° |
| 2026-05-08 09:24 | 58.63306 | 5.91567 | 33711 ft | 421 kts | 153° |
| 2026-05-08 09:25 | 58.60784 | 5.94413 | 34045 ft | 420 kts | 153° |
| 2026-05-08 09:25 | 58.58274 | 5.97240 | 34326 ft | 419 kts | 153° |
| 2026-05-08 09:25 | 58.55757 | 6.00069 | 34492 ft | 420 kts | 153° |
| 2026-05-08 09:25 | 58.53231 | 6.02904 | 34607 ft | 422 kts | 153° |
| 2026-05-08 09:26 | 58.50692 | 6.05749 | 34780 ft | 423 kts | 153° |
| 2026-05-08 09:26 | 58.48150 | 6.08594 | 34982 ft | 423 kts | 153° |
| 2026-05-08 09:26 | 58.45641 | 6.11397 | 35137 ft | 424 kts | 152° |
| 2026-05-08 09:26 | 58.43087 | 6.14245 | 35279 ft | 426 kts | 153° |
| 2026-05-08 09:27 | 58.40533 | 6.17090 | 35447 ft | 426 kts | 153° |
| 2026-05-08 09:27 | 58.37960 | 6.19950 | 35619 ft | 427 kts | 153° |
| 2026-05-08 09:27 | 58.35390 | 6.22803 | 35769 ft | 428 kts | 153° |
| 2026-05-08 09:27 | 58.32812 | 6.25658 | 35927 ft | 429 kts | 152° |
| 2026-05-08 09:28 | 58.30229 | 6.28515 | 36089 ft | 430 kts | 153° |
| 2026-05-08 09:28 | 58.27644 | 6.31370 | 36231 ft | 431 kts | 152° |
| 2026-05-08 09:28 | 58.25047 | 6.34232 | 36359 ft | 432 kts | 152° |
| 2026-05-08 09:28 | 58.22447 | 6.37094 | 36494 ft | 433 kts | 152° |
| 2026-05-08 09:29 | 58.19837 | 6.39960 | 36646 ft | 433 kts | 153° |
| 2026-05-08 09:29 | 58.17229 | 6.42821 | 36781 ft | 434 kts | 153° |
| 2026-05-08 09:29 | 58.14610 | 6.45687 | 36921 ft | 435 kts | 153° |
| 2026-05-08 09:29 | 58.11989 | 6.48552 | 37053 ft | 436 kts | 153° |
| 2026-05-08 09:30 | 58.09360 | 6.51420 | 37175 ft | 436 kts | 153° |
| 2026-05-08 09:30 | 58.04087 | 6.57158 | 37234 ft | 438 kts | 153° |
| 2026-05-08 09:31 | 57.98800 | 6.62892 | 37240 ft | 437 kts | 153° |
| 2026-05-08 09:31 | 57.93525 | 6.68594 | 37240 ft | 437 kts | 153° |
| 2026-05-08 09:32 | 57.88253 | 6.74272 | 37243 ft | 437 kts | 153° |
| 2026-05-08 09:32 | 57.82980 | 6.79931 | 37240 ft | 436 kts | 153° |
| 2026-05-08 09:33 | 57.77705 | 6.85573 | 37242 ft | 436 kts | 153° |
| 2026-05-08 09:33 | 57.72433 | 6.91194 | 37241 ft | 436 kts | 153° |
| 2026-05-08 09:34 | 57.67151 | 6.96806 | 37242 ft | 437 kts | 153° |
| 2026-05-08 09:34 | 57.61867 | 7.02401 | 37242 ft | 437 kts | 153° |
| 2026-05-08 09:35 | 57.56579 | 7.07982 | 37241 ft | 437 kts | 153° |
| 2026-05-08 09:35 | 57.51278 | 7.13557 | 37244 ft | 438 kts | 153° |
| 2026-05-08 09:36 | 57.46008 | 7.19081 | 37244 ft | 438 kts | 153° |
| 2026-05-08 09:36 | 57.40691 | 7.24636 | 37246 ft | 439 kts | 153° |
| 2026-05-08 09:37 | 57.35335 | 7.30214 | 37245 ft | 439 kts | 153° |
| 2026-05-08 09:37 | 57.30039 | 7.35710 | 37243 ft | 439 kts | 153° |
| 2026-05-08 09:38 | 57.24702 | 7.41231 | 37245 ft | 440 kts | 153° |
| 2026-05-08 09:38 | 57.19355 | 7.46743 | 37244 ft | 440 kts | 153° |
| 2026-05-08 09:39 | 57.14004 | 7.52242 | 37245 ft | 440 kts | 153° |
| 2026-05-08 09:39 | 57.08650 | 7.57728 | 37248 ft | 441 kts | 153° |
| 2026-05-08 09:40 | 57.03366 | 7.63440 | 37250 ft | 441 kts | 149° |
| 2026-05-08 09:40 | 56.98250 | 7.69691 | 37242 ft | 442 kts | 148° |
| 2026-05-08 09:41 | 56.93151 | 7.75987 | 37245 ft | 442 kts | 148° |
| 2026-05-08 09:41 | 56.88035 | 7.82239 | 37248 ft | 442 kts | 148° |
| 2026-05-08 09:42 | 56.82905 | 7.88452 | 37246 ft | 442 kts | 148° |
| 2026-05-08 09:42 | 56.77775 | 7.94634 | 37243 ft | 442 kts | 148° |
| 2026-05-08 09:43 | 56.72637 | 8.00802 | 37241 ft | 442 kts | 148° |
| 2026-05-08 09:43 | 56.67495 | 8.06956 | 37246 ft | 442 kts | 148° |
| 2026-05-08 09:44 | 56.62351 | 8.13094 | 37244 ft | 442 kts | 148° |
| 2026-05-08 09:44 | 56.57200 | 8.19218 | 37243 ft | 443 kts | 148° |
| 2026-05-08 09:45 | 56.52039 | 8.25335 | 37240 ft | 443 kts | 148° |
| 2026-05-08 09:45 | 56.46875 | 8.31436 | 37235 ft | 444 kts | 148° |
| 2026-05-08 09:46 | 56.41704 | 8.37524 | 37238 ft | 444 kts | 148° |
| 2026-05-08 09:46 | 56.36520 | 8.43607 | 37239 ft | 444 kts | 148° |
| 2026-05-08 09:47 | 56.31337 | 8.49669 | 37231 ft | 444 kts | 148° |
| 2026-05-08 09:47 | 56.26143 | 8.55725 | 37229 ft | 445 kts | 148° |
| 2026-05-08 09:48 | 56.20981 | 8.61723 | 37232 ft | 445 kts | 148° |
| 2026-05-08 09:48 | 56.15776 | 8.67752 | 37233 ft | 445 kts | 148° |
| 2026-05-08 09:49 | 56.10563 | 8.73770 | 37230 ft | 446 kts | 149° |
| 2026-05-08 09:49 | 56.05349 | 8.79770 | 37228 ft | 446 kts | 149° |
| 2026-05-08 09:50 | 56.00129 | 8.85757 | 37230 ft | 446 kts | 149° |
| 2026-05-08 09:50 | 55.94908 | 8.91725 | 37229 ft | 446 kts | 149° |
| 2026-05-08 09:51 | 55.89679 | 8.97683 | 37233 ft | 446 kts | 149° |
| 2026-05-08 09:51 | 55.84446 | 9.03627 | 37237 ft | 446 kts | 149° |
| 2026-05-08 09:52 | 55.79206 | 9.09560 | 37239 ft | 447 kts | 149° |
| 2026-05-08 09:52 | 55.73963 | 9.15476 | 37238 ft | 447 kts | 149° |
| 2026-05-08 09:53 | 55.68708 | 9.21386 | 37241 ft | 447 kts | 149° |
| 2026-05-08 09:53 | 55.63449 | 9.27283 | 37238 ft | 448 kts | 149° |
| 2026-05-08 09:54 | 55.58180 | 9.33172 | 37237 ft | 448 kts | 149° |
| 2026-05-08 09:54 | 55.52905 | 9.39048 | 37240 ft | 448 kts | 149° |
| 2026-05-08 09:55 | 55.47623 | 9.44914 | 37238 ft | 449 kts | 149° |
| 2026-05-08 09:55 | 55.42333 | 9.50769 | 37241 ft | 449 kts | 149° |
| 2026-05-08 09:56 | 55.37030 | 9.56620 | 37242 ft | 450 kts | 149° |
| 2026-05-08 09:56 | 55.31720 | 9.62460 | 37236 ft | 451 kts | 149° |
| 2026-05-08 09:57 | 55.23738 | 9.71203 | 37236 ft | 451 kts | 149° |
| 2026-05-08 09:57 | 55.18406 | 9.77021 | 37234 ft | 452 kts | 149° |
| 2026-05-08 09:58 | 55.13068 | 9.82827 | 37236 ft | 452 kts | 149° |
| 2026-05-08 09:58 | 55.07729 | 9.88614 | 37244 ft | 452 kts | 149° |
| 2026-05-08 09:59 | 55.02380 | 9.94395 | 37241 ft | 452 kts | 150° |
| 2026-05-08 09:59 | 54.97032 | 10.00156 | 37246 ft | 452 kts | 150° |
| 2026-05-08 10:00 | 54.91674 | 10.05911 | 37236 ft | 453 kts | 150° |
| 2026-05-08 10:00 | 54.86345 | 10.11616 | 37238 ft | 453 kts | 150° |
| 2026-05-08 10:01 | 54.80980 | 10.17341 | 37233 ft | 453 kts | 150° |
| 2026-05-08 10:01 | 54.75609 | 10.23058 | 37247 ft | 453 kts | 150° |
| 2026-05-08 10:02 | 54.70230 | 10.28786 | 37246 ft | 454 kts | 149° |
| 2026-05-08 10:02 | 54.64915 | 10.34729 | 37242 ft | 456 kts | 148° |
| 2026-05-08 10:03 | 54.59617 | 10.40745 | 37247 ft | 456 kts | 148° |
| 2026-05-08 10:03 | 54.54305 | 10.46737 | 37243 ft | 457 kts | 148° |
| 2026-05-08 10:04 | 54.49875 | 10.51697 | 37239 ft | 457 kts | 148° |
| 2026-05-08 10:04 | 54.44539 | 10.57643 | 37243 ft | 457 kts | 149° |
| 2026-05-08 10:05 | 54.39196 | 10.63574 | 37237 ft | 457 kts | 149° |
| 2026-05-08 10:05 | 54.33851 | 10.69491 | 37229 ft | 457 kts | 149° |
| 2026-05-08 10:06 | 54.28501 | 10.75395 | 37239 ft | 457 kts | 149° |
| 2026-05-08 10:06 | 54.23147 | 10.81285 | 37227 ft | 458 kts | 149° |
| 2026-05-08 10:07 | 54.17782 | 10.87169 | 37231 ft | 458 kts | 149° |
| 2026-05-08 10:07 | 54.12419 | 10.93032 | 37222 ft | 458 kts | 149° |
| 2026-05-08 10:08 | 54.07045 | 10.98890 | 37216 ft | 458 kts | 149° |
| 2026-05-08 10:08 | 54.01677 | 11.04721 | 37217 ft | 458 kts | 149° |
| 2026-05-08 10:09 | 53.96310 | 11.10535 | 37216 ft | 458 kts | 149° |
| 2026-05-08 10:09 | 53.90971 | 11.16301 | 37209 ft | 458 kts | 149° |
| 2026-05-08 10:10 | 53.85559 | 11.22125 | 37205 ft | 458 kts | 149° |
| 2026-05-08 10:10 | 53.80216 | 11.27858 | 37203 ft | 458 kts | 149° |
| 2026-05-08 10:11 | 53.74836 | 11.33616 | 37201 ft | 458 kts | 149° |
| 2026-05-08 10:11 | 53.69450 | 11.39360 | 37197 ft | 458 kts | 149° |
| 2026-05-08 10:12 | 53.64060 | 11.45091 | 37189 ft | 458 kts | 149° |
| 2026-05-08 10:12 | 53.58661 | 11.50814 | 37193 ft | 458 kts | 150° |
| 2026-05-08 10:13 | 53.53263 | 11.56519 | 37190 ft | 458 kts | 150° |
| 2026-05-08 10:13 | 53.47857 | 11.62214 | 37192 ft | 458 kts | 150° |
| 2026-05-08 10:14 | 53.42455 | 11.67889 | 37191 ft | 458 kts | 150° |
| 2026-05-08 10:14 | 53.37078 | 11.73519 | 37180 ft | 459 kts | 150° |
| 2026-05-08 10:15 | 53.31657 | 11.79179 | 37182 ft | 459 kts | 150° |
| 2026-05-08 10:15 | 53.26230 | 11.84828 | 37188 ft | 459 kts | 150° |
| 2026-05-08 10:16 | 53.20801 | 11.90461 | 37185 ft | 459 kts | 150° |
| 2026-05-08 10:16 | 53.15374 | 11.96077 | 37186 ft | 459 kts | 150° |
| 2026-05-08 10:17 | 53.09943 | 12.01678 | 37187 ft | 459 kts | 150° |
| 2026-05-08 10:17 | 53.04507 | 12.07269 | 37185 ft | 459 kts | 150° |
| 2026-05-08 10:18 | 52.99109 | 12.12803 | 37185 ft | 459 kts | 150° |
| 2026-05-08 10:18 | 52.93676 | 12.18358 | 37184 ft | 459 kts | 150° |
| 2026-05-08 10:19 | 52.88242 | 12.23896 | 37186 ft | 458 kts | 150° |
| 2026-05-08 10:20 | 52.80094 | 12.32170 | 37188 ft | 458 kts | 150° |
| 2026-05-08 10:20 | 52.74663 | 12.37664 | 37185 ft | 458 kts | 150° |
| 2026-05-08 10:21 | 52.69226 | 12.43148 | 37182 ft | 458 kts | 150° |
| 2026-05-08 10:21 | 52.63787 | 12.48618 | 37187 ft | 458 kts | 150° |
| 2026-05-08 10:22 | 52.58349 | 12.54071 | 37180 ft | 458 kts | 150° |
| 2026-05-08 10:22 | 52.52905 | 12.59514 | 37187 ft | 458 kts | 151° |
| 2026-05-08 10:23 | 52.47461 | 12.64941 | 37186 ft | 458 kts | 151° |
| 2026-05-08 10:23 | 52.42012 | 12.70357 | 37184 ft | 458 kts | 151° |
| 2026-05-08 10:24 | 52.36561 | 12.75759 | 37189 ft | 458 kts | 151° |
| 2026-05-08 10:24 | 52.31142 | 12.81114 | 37179 ft | 458 kts | 151° |
| 2026-05-08 10:25 | 52.25686 | 12.86490 | 37179 ft | 458 kts | 151° |
| 2026-05-08 10:25 | 52.20231 | 12.91849 | 37185 ft | 458 kts | 151° |
| 2026-05-08 10:26 | 52.14771 | 12.97199 | 37179 ft | 457 kts | 151° |
| 2026-05-08 10:26 | 52.09308 | 13.02535 | 37190 ft | 457 kts | 151° |
| 2026-05-08 10:27 | 52.03846 | 13.07855 | 37188 ft | 458 kts | 151° |
| 2026-05-08 10:27 | 51.98407 | 13.13138 | 37188 ft | 459 kts | 151° |
| 2026-05-08 10:28 | 51.92926 | 13.18447 | 37170 ft | 459 kts | 151° |
| 2026-05-08 10:28 | 51.87446 | 13.23741 | 37177 ft | 458 kts | 151° |
| 2026-05-08 10:29 | 51.82018 | 13.29100 | 37176 ft | 457 kts | 147° |
| 2026-05-08 10:29 | 51.76931 | 13.35276 | 37185 ft | 457 kts | 144° |
| 2026-05-08 10:30 | 51.71937 | 13.41582 | 37182 ft | 456 kts | 144° |
| 2026-05-08 10:30 | 51.66923 | 13.47828 | 37181 ft | 455 kts | 145° |
| 2026-05-08 10:31 | 51.61901 | 13.53998 | 37176 ft | 454 kts | 145° |
| 2026-05-08 10:31 | 51.56867 | 13.60142 | 37172 ft | 454 kts | 145° |
| 2026-05-08 10:32 | 51.51861 | 13.66234 | 37164 ft | 454 kts | 145° |
| 2026-05-08 10:32 | 51.46817 | 13.72359 | 37168 ft | 455 kts | 145° |
| 2026-05-08 10:33 | 51.41760 | 13.78482 | 37163 ft | 456 kts | 146° |
| 2026-05-08 10:33 | 51.36687 | 13.84608 | 37157 ft | 456 kts | 146° |
| 2026-05-08 10:34 | 51.31608 | 13.90724 | 37157 ft | 457 kts | 146° |
| 2026-05-08 10:34 | 51.26524 | 13.96828 | 37159 ft | 458 kts | 146° |
| 2026-05-08 10:35 | 51.21434 | 14.02923 | 37155 ft | 458 kts | 146° |
| 2026-05-08 10:35 | 51.16338 | 14.09008 | 37159 ft | 457 kts | 146° |
| 2026-05-08 10:36 | 51.11241 | 14.15077 | 37151 ft | 457 kts | 146° |
| 2026-05-08 10:36 | 51.06149 | 14.21123 | 37157 ft | 456 kts | 146° |
| 2026-05-08 10:37 | 51.01066 | 14.27142 | 37149 ft | 455 kts | 146° |
| 2026-05-08 10:37 | 50.95989 | 14.33140 | 37144 ft | 454 kts | 146° |
| 2026-05-08 10:38 | 50.90979 | 14.39233 | 37145 ft | 454 kts | 143° |
| 2026-05-08 10:38 | 50.86190 | 14.45768 | 37145 ft | 454 kts | 142° |
| 2026-05-08 10:39 | 50.81452 | 14.52361 | 37144 ft | 453 kts | 142° |
| 2026-05-08 10:39 | 50.76706 | 14.58895 | 37145 ft | 452 kts | 142° |
| 2026-05-08 10:40 | 50.71968 | 14.65352 | 37136 ft | 451 kts | 142° |
| 2026-05-08 10:40 | 50.67210 | 14.71803 | 37136 ft | 450 kts | 143° |
| 2026-05-08 10:41 | 50.62453 | 14.78232 | 37129 ft | 450 kts | 143° |
| 2026-05-08 10:41 | 50.57705 | 14.84634 | 37132 ft | 450 kts | 143° |
| 2026-05-08 10:42 | 50.52947 | 14.91030 | 37122 ft | 450 kts | 143° |
| 2026-05-08 10:42 | 50.48186 | 14.97415 | 37122 ft | 450 kts | 143° |
| 2026-05-08 10:43 | 50.43470 | 15.03727 | 37128 ft | 445 kts | 143° |
| 2026-05-08 10:43 | 50.38719 | 15.10058 | 37134 ft | 452 kts | 143° |
| 2026-05-08 10:44 | 50.33893 | 15.16472 | 37131 ft | 458 kts | 143° |
| 2026-05-08 10:44 | 50.29029 | 15.22925 | 37121 ft | 459 kts | 143° |
| 2026-05-08 10:45 | 50.24148 | 15.29384 | 37127 ft | 460 kts | 144° |
| 2026-05-08 10:45 | 50.19293 | 15.35790 | 37123 ft | 459 kts | 144° |
| 2026-05-08 10:46 | 50.14462 | 15.42153 | 37099 ft | 442 kts | 144° |
| 2026-05-08 10:46 | 50.12155 | 15.45192 | 37109 ft | 427 kts | 144° |
| 2026-05-08 10:46 | 50.09902 | 15.48152 | 37116 ft | 421 kts | 144° |
| 2026-05-08 10:47 | 50.05416 | 15.54012 | 37140 ft | 422 kts | 144° |
| 2026-05-08 10:47 | 50.00903 | 15.59891 | 37139 ft | 424 kts | 145° |
| 2026-05-08 10:48 | 49.96371 | 15.65788 | 37131 ft | 425 kts | 145° |
| 2026-05-08 10:48 | 49.91826 | 15.71690 | 37132 ft | 426 kts | 145° |
| 2026-05-08 10:49 | 49.87277 | 15.77583 | 37128 ft | 426 kts | 145° |
| 2026-05-08 10:49 | 49.82720 | 15.83473 | 37121 ft | 426 kts | 145° |
| 2026-05-08 10:50 | 49.78169 | 15.89339 | 37114 ft | 425 kts | 145° |
| 2026-05-08 10:50 | 49.73624 | 15.95183 | 37113 ft | 424 kts | 145° |
| 2026-05-08 10:51 | 49.69087 | 16.01001 | 37104 ft | 423 kts | 146° |
| 2026-05-08 10:51 | 49.65323 | 16.05816 | 37097 ft | 422 kts | 146° |
| 2026-05-08 10:52 | 49.60806 | 16.11582 | 37096 ft | 421 kts | 146° |
| 2026-05-08 10:52 | 49.56303 | 16.17317 | 37099 ft | 419 kts | 146° |
| 2026-05-08 10:53 | 49.51812 | 16.23021 | 37091 ft | 418 kts | 146° |
| 2026-05-08 10:53 | 49.47332 | 16.28699 | 37093 ft | 417 kts | 146° |
| 2026-05-08 10:54 | 49.42854 | 16.34359 | 37090 ft | 416 kts | 146° |
| 2026-05-08 10:54 | 49.38388 | 16.39990 | 37091 ft | 415 kts | 146° |
| 2026-05-08 10:55 | 49.33923 | 16.45607 | 37082 ft | 415 kts | 146° |
| 2026-05-08 10:55 | 49.29492 | 16.51168 | 37084 ft | 414 kts | 147° |
| 2026-05-08 10:56 | 49.25039 | 16.56742 | 37099 ft | 413 kts | 147° |
| 2026-05-08 10:56 | 49.20592 | 16.62298 | 37107 ft | 413 kts | 146° |
| 2026-05-08 10:57 | 49.16135 | 16.67851 | 37097 ft | 413 kts | 147° |
| 2026-05-08 10:57 | 49.09952 | 16.77195 | 37104 ft | 420 kts | 139° |
| 2026-05-08 10:58 | 49.05975 | 16.83738 | 37093 ft | 421 kts | 139° |
| 2026-05-08 10:58 | 49.01953 | 16.90251 | 37094 ft | 422 kts | 139° |
| 2026-05-08 10:59 | 48.97903 | 16.96740 | 37086 ft | 423 kts | 139° |
| 2026-05-08 10:59 | 48.93835 | 17.03233 | 37078 ft | 424 kts | 139° |
| 2026-05-08 11:00 | 48.89756 | 17.09733 | 37070 ft | 425 kts | 139° |
| 2026-05-08 11:00 | 48.85668 | 17.16230 | 37067 ft | 425 kts | 139° |
| 2026-05-08 11:01 | 48.81614 | 17.22676 | 37058 ft | 425 kts | 139° |
| 2026-05-08 11:01 | 48.77555 | 17.29136 | 37059 ft | 421 kts | 139° |
| 2026-05-08 11:02 | 48.71519 | 17.38710 | 37057 ft | 416 kts | 139° |
| 2026-05-08 11:03 | 48.67523 | 17.45026 | 37068 ft | 415 kts | 139° |
| 2026-05-08 11:03 | 48.63531 | 17.51322 | 37064 ft | 414 kts | 139° |
| 2026-05-08 11:04 | 48.59533 | 17.57608 | 37080 ft | 415 kts | 140° |
| 2026-05-08 11:04 | 48.55513 | 17.63908 | 37067 ft | 417 kts | 140° |
| 2026-05-08 11:05 | 48.51470 | 17.70234 | 37071 ft | 419 kts | 140° |
| 2026-05-08 11:05 | 48.47406 | 17.76581 | 37069 ft | 422 kts | 140° |
| 2026-05-08 11:06 | 48.43319 | 17.82948 | 37070 ft | 424 kts | 140° |
| 2026-05-08 11:06 | 48.39214 | 17.89330 | 36523 ft | 424 kts | 140° |
| 2026-05-08 11:06 | 48.37150 | 17.92532 | 35745 ft | 428 kts | 141° |
| 2026-05-08 11:07 | 48.35058 | 17.95769 | 34898 ft | 435 kts | 141° |
| 2026-05-08 11:07 | 48.32930 | 17.99060 | 34064 ft | 442 kts | 141° |
| 2026-05-08 11:07 | 48.30774 | 18.02390 | 33111 ft | 447 kts | 141° |
| 2026-05-08 11:07 | 48.28617 | 18.05728 | 32209 ft | 452 kts | 140° |
| 2026-05-08 11:08 | 48.26435 | 18.09257 | 31335 ft | 457 kts | 138° |
| 2026-05-08 11:08 | 48.24313 | 18.12809 | 30539 ft | 459 kts | 137° |
| 2026-05-08 11:08 | 48.22217 | 18.16353 | 29656 ft | 461 kts | 137° |
| 2026-05-08 11:08 | 48.20099 | 18.19933 | 28973 ft | 456 kts | 137° |
| 2026-05-08 11:09 | 48.18002 | 18.23459 | 28403 ft | 450 kts | 137° |
| 2026-05-08 11:09 | 48.15929 | 18.26924 | 27836 ft | 444 kts | 137° |
| 2026-05-08 11:09 | 48.13867 | 18.30349 | 27195 ft | 440 kts | 137° |
| 2026-05-08 11:09 | 48.11821 | 18.33736 | 26558 ft | 437 kts | 137° |
| 2026-05-08 11:10 | 48.09790 | 18.37091 | 25993 ft | 433 kts | 137° |
| 2026-05-08 11:10 | 48.07781 | 18.40408 | 25441 ft | 428 kts | 137° |
| 2026-05-08 11:10 | 48.05792 | 18.43689 | 24895 ft | 424 kts | 137° |
| 2026-05-08 11:10 | 48.03815 | 18.46946 | 24331 ft | 421 kts | 137° |
| 2026-05-08 11:11 | 48.01854 | 18.50174 | 23791 ft | 418 kts | 136° |
| 2026-05-08 11:11 | 47.99907 | 18.53375 | 23218 ft | 414 kts | 136° |
| 2026-05-08 11:11 | 47.98010 | 18.56599 | 22591 ft | 414 kts | 131° |
| 2026-05-08 11:11 | 47.96651 | 18.60406 | 21940 ft | 421 kts | 113° |
| 2026-05-08 11:12 | 47.95740 | 18.64537 | 21400 ft | 417 kts | 111° |
| 2026-05-08 11:12 | 47.94867 | 18.68652 | 20825 ft | 414 kts | 111° |
| 2026-05-08 11:12 | 47.93993 | 18.72732 | 20220 ft | 412 kts | 112° |
| 2026-05-08 11:12 | 47.93107 | 18.76788 | 19692 ft | 409 kts | 112° |
| 2026-05-08 11:13 | 47.92216 | 18.80801 | 19178 ft | 406 kts | 112° |
| 2026-05-08 11:13 | 47.91325 | 18.84768 | 18646 ft | 403 kts | 112° |
| 2026-05-08 11:13 | 47.90433 | 18.88722 | 18093 ft | 401 kts | 112° |
| 2026-05-08 11:13 | 47.89546 | 18.92648 | 17544 ft | 398 kts | 111° |